createdAt,value
2022-09-24T00:00:57.808Z,996.05
2022-09-24T00:01:57.805Z,996.07
2022-09-24T00:02:57.831Z,996.03
2022-09-24T00:03:57.739Z,996.04
2022-09-24T00:04:57.747Z,996.03
2022-09-24T00:05:57.720Z,996.03
2022-09-24T00:06:57.729Z,995.96
2022-09-24T00:07:57.699Z,995.98
2022-09-24T00:08:57.689Z,995.97
2022-09-24T00:09:57.678Z,995.93
2022-09-24T00:10:57.676Z,995.98
2022-09-24T00:11:57.649Z,995.90
2022-09-24T00:12:57.668Z,995.93
2022-09-24T00:13:57.628Z,995.94
2022-09-24T00:14:57.618Z,995.95
2022-09-24T00:15:57.665Z,995.97
2022-09-24T00:16:57.596Z,995.92
2022-09-24T00:17:57.609Z,995.96
2022-09-24T00:18:57.569Z,995.98
2022-09-24T00:19:57.559Z,996.00
2022-09-24T00:20:57.556Z,996.02
2022-09-24T00:21:57.539Z,995.95
2022-09-24T00:22:57.530Z,995.95
2022-09-24T00:23:57.540Z,995.99
2022-09-24T00:24:57.505Z,995.96
2022-09-24T00:25:57.489Z,995.96
2022-09-24T00:26:57.481Z,995.89
2022-09-24T00:27:57.481Z,995.92
2022-09-24T00:28:57.461Z,995.90
2022-09-24T00:29:57.469Z,995.90
2022-09-24T00:30:57.471Z,995.89
2022-09-24T00:31:57.485Z,995.94
2022-09-24T00:32:57.410Z,995.92
2022-09-24T00:33:57.401Z,995.88
2022-09-24T00:34:57.389Z,995.88
2022-09-24T00:35:57.400Z,995.86
2022-09-24T00:36:57.379Z,995.92
2022-09-24T00:37:57.358Z,995.88
2022-09-24T00:38:57.343Z,995.89
2022-09-24T00:39:57.334Z,995.87
2022-09-24T00:40:57.319Z,995.82
2022-09-24T00:41:57.330Z,995.80
2022-09-24T00:42:57.290Z,995.83
2022-09-24T00:43:57.318Z,995.88
2022-09-24T00:44:57.280Z,995.89
2022-09-24T00:45:57.268Z,995.84
2022-09-24T00:46:57.327Z,995.83
2022-09-24T00:47:57.250Z,995.79
2022-09-24T00:48:57.237Z,995.79
2022-09-24T00:49:57.220Z,995.78
2022-09-24T00:50:57.217Z,995.78
2022-09-24T00:51:57.191Z,995.73
2022-09-24T00:52:57.211Z,995.74
2022-09-24T00:53:57.169Z,995.74
2022-09-24T00:54:57.161Z,995.80
2022-09-24T00:55:57.154Z,995.78
2022-09-24T00:56:57.137Z,995.72
2022-09-24T00:57:57.132Z,995.71
2022-09-24T00:58:57.141Z,995.75
2022-09-24T00:59:57.099Z,995.72
2022-09-24T01:00:57.186Z,995.74
2022-09-24T01:01:57.128Z,995.74
2022-09-24T01:02:57.060Z,995.73
2022-09-24T01:03:57.059Z,995.70
2022-09-24T01:04:57.063Z,995.67
2022-09-24T01:05:57.029Z,995.65
2022-09-24T01:06:57.021Z,995.62
2022-09-24T01:07:57.009Z,995.70
2022-09-24T01:08:56.989Z,995.70
2022-09-24T01:09:56.991Z,995.62
2022-09-24T01:10:57.000Z,995.62
2022-09-24T01:11:56.967Z,995.63
2022-09-24T01:12:56.950Z,995.60
2022-09-24T01:13:56.940Z,995.61
2022-09-24T01:14:56.928Z,995.64
2022-09-24T01:15:56.958Z,995.64
2022-09-24T01:16:56.950Z,995.65
2022-09-24T01:17:56.889Z,995.61
2022-09-24T01:18:56.879Z,995.64
2022-09-24T01:19:56.870Z,995.66
2022-09-24T01:20:56.858Z,995.65
2022-09-24T01:21:56.848Z,995.59
2022-09-24T01:22:56.860Z,995.64
2022-09-24T01:23:56.850Z,995.56
2022-09-24T01:24:56.810Z,995.59
2022-09-24T01:25:56.807Z,995.57
2022-09-24T01:26:56.789Z,995.58
2022-09-24T01:27:56.789Z,995.50
2022-09-24T01:28:56.779Z,995.49
2022-09-24T01:29:56.759Z,995.49
2022-09-24T01:30:56.748Z,995.49
2022-09-24T01:31:56.813Z,995.51
2022-09-24T01:32:56.718Z,995.47
2022-09-24T01:33:56.710Z,995.49
2022-09-24T01:34:56.719Z,995.49
2022-09-24T01:35:56.710Z,995.49
2022-09-24T01:36:56.670Z,995.49
2022-09-24T01:37:56.659Z,995.43
2022-09-24T01:38:56.661Z,995.43
2022-09-24T01:39:56.639Z,995.43
2022-09-24T01:40:56.736Z,995.45
2022-09-24T01:41:56.620Z,995.46
2022-09-24T01:42:56.599Z,995.41
2022-09-24T01:43:56.599Z,995.42
2022-09-24T01:44:56.579Z,995.38
2022-09-24T01:45:56.594Z,995.37
2022-09-24T01:47:03.670Z,995.34
2022-09-24T01:47:58.192Z,995.30
2022-09-24T01:48:56.532Z,995.28
2022-09-24T01:49:56.530Z,995.23
2022-09-24T01:50:56.522Z,995.30
2022-09-24T01:51:56.529Z,995.29
2022-09-24T01:52:56.491Z,995.26
2022-09-24T01:53:56.481Z,995.24
2022-09-24T01:54:56.462Z,995.22
2022-09-24T01:55:56.463Z,995.21
2022-09-24T01:56:56.445Z,995.24
2022-09-24T01:57:56.452Z,995.16
2022-09-24T01:58:56.423Z,995.16
2022-09-24T01:59:56.412Z,995.15
2022-09-24T02:00:56.450Z,995.10
2022-09-24T02:01:56.491Z,995.09
2022-09-24T02:02:56.404Z,995.08
2022-09-24T02:03:56.361Z,995.09
2022-09-24T02:04:56.351Z,995.09
2022-09-24T02:05:56.361Z,995.09
2022-09-24T02:06:56.329Z,995.11
2022-09-24T02:07:56.320Z,995.11
2022-09-24T02:08:56.332Z,995.06
2022-09-24T02:09:56.300Z,995.11
2022-09-24T02:10:56.281Z,995.08
2022-09-24T02:11:56.275Z,995.10
2022-09-24T02:12:56.261Z,995.09
2022-09-24T02:13:56.263Z,995.09
2022-09-24T02:14:56.261Z,995.05
2022-09-24T02:15:56.270Z,995.03
2022-09-24T02:16:56.211Z,995.01
2022-09-24T02:17:56.201Z,994.99
2022-09-24T02:18:56.191Z,995.00
2022-09-24T02:19:56.182Z,995.01
2022-09-24T02:20:56.181Z,995.01
2022-09-24T02:21:56.162Z,995.02
2022-09-24T02:22:56.152Z,995.06
2022-09-24T02:23:56.141Z,995.04
2022-09-24T02:24:56.121Z,995.03
2022-09-24T02:25:56.141Z,995.03
2022-09-24T02:26:56.100Z,995.02
2022-09-24T02:27:56.091Z,995.01
2022-09-24T02:28:56.071Z,995.02
2022-09-24T02:29:56.072Z,995.06
2022-09-24T02:30:56.162Z,995.05
2022-09-24T02:31:56.198Z,995.02
2022-09-24T02:32:56.030Z,995.04
2022-09-24T02:33:56.029Z,995.05
2022-09-24T02:34:56.001Z,995.00
2022-09-24T02:35:56.002Z,995.04
2022-09-24T02:36:55.984Z,995.04
2022-09-24T02:37:56.022Z,995.01
2022-09-24T02:38:55.960Z,995.04
2022-09-24T02:39:55.952Z,995.08
2022-09-24T02:40:56.035Z,995.03
2022-09-24T02:41:55.930Z,995.05
2022-09-24T02:42:55.910Z,995.06
2022-09-24T02:43:55.923Z,995.03
2022-09-24T02:44:55.893Z,995.03
2022-09-24T02:45:55.880Z,995.04
2022-09-24T02:46:56.007Z,995.02
2022-09-24T02:47:55.862Z,994.99
2022-09-24T02:48:55.869Z,994.99
2022-09-24T02:49:55.831Z,994.90
2022-09-24T02:50:55.820Z,994.86
2022-09-24T02:51:55.821Z,994.86
2022-09-24T02:52:55.798Z,994.86
2022-09-24T02:53:55.790Z,994.91
2022-09-24T02:54:55.799Z,994.91
2022-09-24T02:55:55.769Z,994.96
2022-09-24T02:56:55.750Z,994.95
2022-09-24T02:57:55.745Z,994.96
2022-09-24T02:58:55.733Z,994.92
2022-09-24T02:59:55.722Z,994.94
2022-09-24T03:00:55.730Z,994.94
2022-09-24T03:01:55.787Z,994.92
2022-09-24T03:02:55.741Z,994.92
2022-09-24T03:03:55.671Z,994.95
2022-09-24T03:04:55.662Z,995.01
2022-09-24T03:05:55.650Z,994.99
2022-09-24T03:06:55.659Z,994.98
2022-09-24T03:07:55.631Z,994.96
2022-09-24T03:08:55.612Z,995.00
2022-09-24T03:09:55.622Z,994.98
2022-09-24T03:10:55.591Z,994.92
2022-09-24T03:11:55.592Z,994.96
2022-09-24T03:12:55.599Z,994.94
2022-09-24T03:13:55.572Z,994.97
2022-09-24T03:14:55.543Z,994.92
2022-09-24T03:15:55.624Z,994.90
2022-09-24T03:16:55.530Z,994.92
2022-09-24T03:17:55.520Z,994.95
2022-09-24T03:18:55.525Z,994.98
2022-09-24T03:19:55.490Z,994.95
2022-09-24T03:20:55.485Z,994.89
2022-09-24T03:21:55.470Z,995.00
2022-09-24T03:22:55.459Z,995.00
2022-09-24T03:23:55.449Z,994.99
2022-09-24T03:24:55.509Z,995.02
2022-09-24T03:25:56.193Z,994.99
2022-09-24T03:26:55.409Z,995.01
2022-09-24T03:27:55.405Z,995.05
2022-09-24T03:28:55.382Z,995.03
2022-09-24T03:29:55.379Z,995.05
2022-09-24T03:30:55.424Z,995.00
2022-09-24T03:31:55.407Z,995.00
2022-09-24T03:32:55.339Z,994.99
2022-09-24T03:33:55.333Z,995.01
2022-09-24T03:34:55.320Z,995.04
2022-09-24T03:35:55.310Z,995.03
2022-09-24T03:36:55.320Z,995.01
2022-09-24T03:37:55.291Z,995.05
2022-09-24T03:38:55.279Z,995.05
2022-09-24T03:39:55.270Z,995.02
2022-09-24T03:40:55.321Z,994.99
2022-09-24T03:41:55.240Z,994.97
2022-09-24T03:42:55.243Z,994.96
2022-09-24T03:43:55.222Z,994.97
2022-09-24T03:44:55.210Z,995.01
2022-09-24T03:45:55.202Z,994.95
2022-09-24T03:46:55.245Z,994.98
2022-09-24T03:47:55.193Z,995.00
2022-09-24T03:48:55.159Z,994.98
2022-09-24T03:49:55.150Z,995.00
2022-09-24T03:50:55.129Z,994.99
2022-09-24T03:51:55.128Z,995.12
2022-09-24T03:52:55.109Z,995.03
2022-09-24T03:53:55.131Z,995.01
2022-09-24T03:54:55.091Z,995.09
2022-09-24T03:55:55.080Z,995.10
2022-09-24T03:56:55.069Z,995.07
2022-09-24T03:57:55.059Z,995.11
2022-09-24T03:58:55.051Z,995.08
2022-09-24T03:59:55.057Z,995.07
2022-09-24T04:00:55.021Z,995.08
2022-09-24T04:01:55.044Z,995.04
2022-09-24T04:02:55.051Z,995.06
2022-09-24T04:03:54.989Z,994.96
2022-09-24T04:04:55.763Z,994.94
2022-09-24T04:05:54.989Z,994.90
2022-09-24T04:06:54.968Z,994.91
2022-09-24T04:07:54.961Z,994.88
2022-09-24T04:08:54.947Z,994.92
2022-09-24T04:09:54.928Z,994.80
2022-09-24T04:10:54.931Z,994.84
2022-09-24T04:11:54.898Z,994.73
2022-09-24T04:12:54.888Z,994.81
2022-09-24T04:13:54.879Z,994.87
2022-09-24T04:14:54.870Z,994.82
2022-09-24T04:15:54.942Z,994.83
2022-09-24T04:16:54.860Z,994.90
2022-09-24T04:17:54.836Z,994.82
2022-09-24T04:18:54.818Z,994.83
2022-09-24T04:19:54.811Z,994.83
2022-09-24T04:20:54.798Z,994.80
2022-09-24T04:21:54.809Z,994.85
2022-09-24T04:22:54.779Z,994.88
2022-09-24T04:23:54.769Z,994.83
2022-09-24T04:24:54.749Z,994.79
2022-09-24T04:25:54.747Z,994.77
2022-09-24T04:26:54.735Z,994.75
2022-09-24T04:27:54.748Z,994.75
2022-09-24T04:28:54.708Z,994.68
2022-09-24T04:29:54.688Z,994.66
2022-09-24T04:30:54.732Z,994.65
2022-09-24T04:31:54.739Z,994.57
2022-09-24T04:32:54.667Z,994.62
2022-09-24T04:33:54.671Z,994.66
2022-09-24T04:34:54.639Z,994.63
2022-09-24T04:35:54.629Z,994.65
2022-09-24T04:36:54.617Z,994.57
2022-09-24T04:37:54.607Z,994.51
2022-09-24T04:38:54.598Z,994.54
2022-09-24T04:39:54.610Z,994.57
2022-09-24T04:40:54.629Z,994.53
2022-09-24T04:41:54.560Z,994.52
2022-09-24T04:42:54.558Z,994.54
2022-09-24T04:43:54.547Z,994.58
2022-09-24T04:44:56.163Z,994.56
2022-09-24T04:45:54.529Z,994.57
2022-09-24T04:46:54.600Z,994.60
2022-09-24T04:47:54.488Z,994.61
2022-09-24T04:48:54.498Z,994.58
2022-09-24T04:49:54.468Z,994.66
2022-09-24T04:50:54.488Z,994.60
2022-09-24T04:51:54.478Z,994.62
2022-09-24T04:52:54.456Z,994.58
2022-09-24T04:53:54.426Z,994.63
2022-09-24T04:54:54.419Z,994.57
2022-09-24T04:55:54.405Z,994.56
2022-09-24T04:56:54.416Z,994.54
2022-09-24T04:57:54.396Z,994.52
2022-09-24T04:58:54.371Z,994.49
2022-09-24T04:59:54.357Z,994.56
2022-09-24T05:00:54.357Z,994.55
2022-09-24T05:01:54.473Z,994.50
2022-09-24T05:02:54.498Z,994.57
2022-09-24T05:03:54.309Z,994.56
2022-09-24T05:04:54.297Z,994.55
2022-09-24T05:05:54.293Z,994.56
2022-09-24T05:06:54.278Z,994.58
2022-09-24T05:07:54.266Z,994.62
2022-09-24T05:08:54.277Z,994.58
2022-09-24T05:09:54.245Z,994.55
2022-09-24T05:10:54.237Z,994.58
2022-09-24T05:11:54.219Z,994.58
2022-09-24T05:12:54.208Z,994.58
2022-09-24T05:13:54.220Z,994.60
2022-09-24T05:14:54.187Z,994.60
2022-09-24T05:15:54.238Z,994.64
2022-09-24T05:16:54.166Z,994.68
2022-09-24T05:17:54.148Z,994.69
2022-09-24T05:18:54.148Z,994.72
2022-09-24T05:19:54.148Z,994.68
2022-09-24T05:20:54.117Z,994.72
2022-09-24T05:21:54.105Z,994.73
2022-09-24T05:22:54.097Z,994.76
2022-09-24T05:23:54.088Z,994.79
2022-09-24T05:24:54.076Z,994.75
2022-09-24T05:25:54.078Z,994.80
2022-09-24T05:26:54.056Z,994.80
2022-09-24T05:27:54.041Z,994.79
2022-09-24T05:28:54.027Z,994.78
2022-09-24T05:29:54.016Z,994.78
2022-09-24T05:30:54.043Z,994.77
2022-09-24T05:31:54.007Z,994.76
2022-09-24T05:32:53.979Z,994.85
2022-09-24T05:33:53.969Z,994.80
2022-09-24T05:34:53.959Z,994.75
2022-09-24T05:35:53.951Z,994.78
2022-09-24T05:36:53.957Z,994.82
2022-09-24T05:37:54.089Z,994.77
2022-09-24T05:38:53.915Z,994.73
2022-09-24T05:39:53.896Z,994.72
2022-09-24T05:40:53.930Z,994.76
2022-09-24T05:41:53.876Z,994.77
2022-09-24T05:42:53.887Z,994.79
2022-09-24T05:43:53.858Z,994.77
2022-09-24T05:44:53.846Z,994.80
2022-09-24T05:45:53.836Z,994.85
2022-09-24T05:46:53.871Z,994.89
2022-09-24T05:47:53.808Z,994.84
2022-09-24T05:48:53.826Z,994.80
2022-09-24T05:49:53.787Z,994.83
2022-09-24T05:50:53.776Z,994.84
2022-09-24T05:51:53.766Z,994.84
2022-09-24T05:52:53.756Z,994.88
2022-09-24T05:53:53.745Z,994.85
2022-09-24T05:54:53.746Z,994.89
2022-09-24T05:55:53.716Z,994.88
2022-09-24T05:56:53.706Z,994.93
2022-09-24T05:57:53.697Z,994.92
2022-09-24T05:58:53.686Z,994.89
2022-09-24T05:59:53.696Z,994.90
2022-09-24T06:00:53.665Z,994.99
2022-09-24T06:01:53.658Z,995.01
2022-09-24T06:02:53.669Z,994.96
2022-09-24T06:03:53.676Z,994.97
2022-09-24T06:04:53.619Z,994.97
2022-09-24T06:05:53.626Z,994.95
2022-09-24T06:06:53.597Z,994.93
2022-09-24T06:07:53.577Z,994.93
2022-09-24T06:08:53.579Z,995.01
2022-09-24T06:09:53.563Z,994.93
2022-09-24T06:10:53.547Z,994.94
2022-09-24T06:11:53.557Z,994.88
2022-09-24T06:12:53.524Z,994.88
2022-09-24T06:13:53.556Z,994.92
2022-09-24T06:14:53.505Z,994.94
2022-09-24T06:15:53.535Z,994.92
2022-09-24T06:16:53.485Z,994.90
2022-09-24T06:17:53.497Z,994.98
2022-09-24T06:18:53.457Z,994.92
2022-09-24T06:19:53.446Z,994.93
2022-09-24T06:20:53.436Z,994.91
2022-09-24T06:21:53.423Z,994.89
2022-09-24T06:22:53.434Z,994.88
2022-09-24T06:23:53.405Z,994.95
2022-09-24T06:24:53.387Z,994.92
2022-09-24T06:25:53.377Z,994.87
2022-09-24T06:26:53.366Z,994.97
2022-09-24T06:27:53.353Z,994.97
2022-09-24T06:28:53.388Z,994.95
2022-09-24T06:29:53.326Z,994.96
2022-09-24T06:30:53.334Z,994.96
2022-09-24T06:31:53.314Z,994.97
2022-09-24T06:32:53.298Z,994.96
2022-09-24T06:33:53.293Z,995.00
2022-09-24T06:34:56.902Z,994.97
2022-09-24T06:35:54.264Z,994.97
2022-09-24T06:36:53.247Z,994.90
2022-09-24T06:37:53.236Z,994.92
2022-09-24T06:38:53.228Z,995.00
2022-09-24T06:39:53.236Z,994.99
2022-09-24T06:40:53.249Z,994.92
2022-09-24T06:41:53.188Z,994.93
2022-09-24T06:42:53.184Z,994.94
2022-09-24T06:43:53.176Z,994.86
2022-09-24T06:44:53.159Z,994.91
2022-09-24T06:45:53.158Z,994.93
2022-09-24T06:46:53.174Z,994.97
2022-09-24T06:47:53.119Z,994.97
2022-09-24T06:48:53.115Z,995.01
2022-09-24T06:49:53.097Z,994.99
2022-09-24T06:50:53.115Z,995.04
2022-09-24T06:51:53.076Z,995.04
2022-09-24T06:52:53.066Z,995.01
2022-09-24T06:53:53.066Z,995.03
2022-09-24T06:54:53.047Z,994.95
2022-09-24T06:55:53.046Z,994.97
2022-09-24T06:56:53.050Z,994.95
2022-09-24T06:57:53.015Z,994.99
2022-09-24T06:58:52.998Z,994.95
2022-09-24T06:59:52.986Z,994.97
2022-09-24T07:00:53.028Z,994.96
2022-09-24T07:01:53.043Z,994.91
2022-09-24T07:02:52.967Z,994.84
2022-09-24T07:03:52.948Z,994.90
2022-09-24T07:04:52.929Z,994.84
2022-09-24T07:05:52.918Z,994.91
2022-09-24T07:06:52.909Z,994.98
2022-09-24T07:07:52.910Z,994.91
2022-09-24T07:08:52.878Z,995.00
2022-09-24T07:09:52.870Z,994.93
2022-09-24T07:10:52.867Z,994.91
2022-09-24T07:11:52.849Z,994.92
2022-09-24T07:12:52.838Z,994.86
2022-09-24T07:13:52.861Z,994.86
2022-09-24T07:14:52.820Z,994.89
2022-09-24T07:15:52.919Z,994.89
2022-09-24T07:16:52.789Z,994.92
2022-09-24T07:17:52.779Z,994.97
2022-09-24T07:18:52.769Z,994.91
2022-09-24T07:19:52.771Z,994.95
2022-09-24T07:20:52.759Z,995.02
2022-09-24T07:21:53.531Z,995.01
2022-09-24T07:22:52.739Z,994.98
2022-09-24T07:23:57.783Z,995.01
2022-09-24T07:24:53.722Z,995.05
2022-09-24T07:25:52.688Z,995.03
2022-09-24T07:26:52.680Z,994.97
2022-09-24T07:27:52.661Z,994.98
2022-09-24T07:28:52.661Z,995.00
2022-09-24T07:29:52.640Z,994.98
2022-09-24T07:30:52.691Z,995.04
2022-09-24T07:31:52.623Z,994.99
2022-09-24T07:32:52.619Z,995.10
2022-09-24T07:33:52.604Z,995.08
2022-09-24T07:34:52.593Z,995.01
2022-09-24T07:35:52.578Z,995.11
2022-09-24T07:36:52.590Z,995.09
2022-09-24T07:37:52.556Z,994.96
2022-09-24T07:38:52.542Z,995.09
2022-09-24T07:39:52.523Z,995.10
2022-09-24T07:40:52.567Z,995.11
2022-09-24T07:41:52.504Z,995.04
2022-09-24T07:42:52.514Z,995.08
2022-09-24T07:43:52.496Z,995.17
2022-09-24T07:44:52.477Z,995.14
2022-09-24T07:45:52.456Z,995.20
2022-09-24T07:46:52.517Z,995.13
2022-09-24T07:47:52.454Z,995.12
2022-09-24T07:48:52.428Z,995.20
2022-09-24T07:49:52.412Z,995.16
2022-09-24T07:50:52.404Z,995.13
2022-09-24T07:51:52.407Z,995.19
2022-09-24T07:52:52.456Z,995.14
2022-09-24T07:53:52.394Z,995.09
2022-09-24T07:54:52.408Z,995.11
2022-09-24T07:55:52.339Z,995.11
2022-09-24T07:56:52.337Z,995.10
2022-09-24T07:57:52.324Z,995.12
2022-09-24T07:58:52.316Z,995.11
2022-09-24T07:59:52.316Z,995.15
2022-09-24T08:00:52.287Z,995.21
2022-09-24T08:01:52.322Z,995.24
2022-09-24T08:02:52.268Z,995.25
2022-09-24T08:03:52.297Z,995.30
2022-09-24T08:04:52.247Z,995.31
2022-09-24T08:05:52.250Z,995.25
2022-09-24T08:06:52.222Z,995.26
2022-09-24T08:07:52.216Z,995.27
2022-09-24T08:08:52.199Z,995.21
2022-09-24T08:09:52.181Z,995.27
2022-09-24T08:10:52.198Z,995.13
2022-09-24T08:11:52.160Z,995.18
2022-09-24T08:12:52.160Z,995.20
2022-09-24T08:13:52.150Z,995.14
2022-09-24T08:14:52.131Z,995.20
2022-09-24T08:15:52.182Z,995.18
2022-09-24T08:16:52.132Z,995.20
2022-09-24T08:17:52.099Z,995.13
2022-09-24T08:18:52.092Z,995.14
2022-09-24T08:19:52.072Z,995.10
2022-09-24T08:20:52.063Z,995.10
2022-09-24T08:21:52.054Z,995.12
2022-09-24T08:22:52.061Z,995.06
2022-09-24T08:23:52.040Z,995.09
2022-09-24T08:24:52.037Z,995.09
2022-09-24T08:25:52.011Z,995.12
2022-09-24T08:26:52.001Z,995.15
2022-09-24T08:27:51.994Z,995.07
2022-09-24T08:28:52.007Z,995.07
2022-09-24T08:29:59.009Z,995.07
2022-09-24T08:30:51.977Z,995.05
2022-09-24T08:31:51.943Z,995.04
2022-09-24T08:32:51.943Z,995.12
2022-09-24T08:33:51.933Z,995.09
2022-09-24T08:34:52.831Z,995.10
2022-09-24T08:35:51.903Z,995.05
2022-09-24T08:36:51.883Z,995.03
2022-09-24T08:37:51.873Z,995.03
2022-09-24T08:38:51.862Z,995.03
2022-09-24T08:39:51.853Z,995.02
2022-09-24T08:40:51.943Z,994.98
2022-09-24T08:41:51.826Z,995.05
2022-09-24T08:42:51.814Z,995.13
2022-09-24T08:43:51.814Z,995.06
2022-09-24T08:44:51.792Z,995.04
2022-09-24T08:45:51.783Z,995.03
2022-09-24T08:46:51.813Z,995.04
2022-09-24T08:47:51.763Z,995.07
2022-09-24T08:48:51.744Z,995.07
2022-09-24T08:49:51.734Z,995.06
2022-09-24T08:50:51.717Z,995.09
2022-09-24T08:51:51.735Z,995.12
2022-09-24T08:52:51.716Z,995.14
2022-09-24T08:53:51.717Z,995.15
2022-09-24T08:54:51.685Z,995.19
2022-09-24T08:55:51.673Z,995.27
2022-09-24T08:56:51.664Z,995.30
2022-09-24T08:57:51.696Z,995.28
2022-09-24T08:58:51.626Z,995.29
2022-09-24T08:59:51.632Z,995.33
2022-09-24T09:00:51.607Z,995.26
2022-09-24T09:01:51.761Z,995.25
2022-09-24T09:02:51.613Z,995.23
2022-09-24T09:03:51.607Z,995.22
2022-09-24T09:04:51.565Z,995.34
2022-09-24T09:05:51.557Z,995.24
2022-09-24T09:06:51.544Z,995.30
2022-09-24T09:07:51.537Z,995.27
2022-09-24T09:09:06.190Z,995.40
2022-09-24T09:09:52.538Z,995.31
2022-09-24T09:10:51.498Z,995.28
2022-09-24T09:11:51.529Z,995.51
2022-09-24T09:12:51.477Z,995.41
2022-09-24T09:13:51.483Z,995.29
2022-09-24T09:14:51.459Z,995.32
2022-09-24T09:15:51.503Z,995.38
2022-09-24T09:16:51.430Z,995.23
2022-09-24T09:17:51.419Z,995.26
2022-09-24T09:18:51.410Z,995.16
2022-09-24T09:19:53.751Z,995.21
2022-09-24T09:20:51.427Z,995.19
2022-09-24T09:21:51.379Z,995.22
2022-09-24T09:22:51.364Z,995.24
2022-09-24T09:23:51.403Z,995.20
2022-09-24T09:24:51.342Z,995.17
2022-09-24T09:25:51.332Z,995.18
2022-09-24T09:26:51.342Z,995.15
2022-09-24T09:27:51.312Z,995.09
2022-09-24T09:28:51.293Z,995.11
2022-09-24T09:29:51.289Z,995.09
2022-09-24T09:30:51.354Z,995.07
2022-09-24T09:31:55.450Z,995.07
2022-09-24T09:32:52.272Z,995.04
2022-09-24T09:33:51.256Z,995.01
2022-09-24T09:34:51.234Z,995.05
2022-09-24T09:35:51.222Z,994.96
2022-09-24T09:36:51.235Z,994.98
2022-09-24T09:37:51.200Z,995.05
2022-09-24T09:38:51.345Z,995.01
2022-09-24T09:39:51.175Z,995.03
2022-09-24T09:40:51.250Z,995.02
2022-09-24T09:41:51.212Z,995.07
2022-09-24T09:42:51.133Z,995.05
2022-09-24T09:43:51.144Z,995.14
2022-09-24T09:44:51.133Z,995.14
2022-09-24T09:45:51.114Z,995.03
2022-09-24T09:46:51.123Z,995.13
2022-09-24T09:47:51.074Z,995.11
2022-09-24T09:48:51.065Z,995.04
2022-09-24T09:49:51.065Z,995.12
2022-09-24T09:50:51.067Z,995.10
2022-09-24T09:51:51.039Z,995.17
2022-09-24T09:52:51.025Z,995.11
2022-09-24T09:53:51.028Z,995.13
2022-09-24T09:54:51.001Z,995.08
2022-09-24T09:55:50.989Z,995.11
2022-09-24T09:56:50.995Z,995.15
2022-09-24T09:57:50.967Z,995.12
2022-09-24T09:58:50.956Z,995.05
2022-09-24T09:59:50.944Z,995.02
2022-09-24T10:00:50.928Z,995.02
2022-09-24T10:01:50.994Z,994.98
2022-09-24T10:02:50.975Z,995.02
2022-09-24T10:03:50.929Z,995.04
2022-09-24T10:04:52.164Z,995.00
2022-09-24T10:05:50.876Z,995.01
2022-09-24T10:06:50.866Z,995.04
2022-09-24T10:07:50.878Z,994.99
2022-09-24T10:08:50.838Z,995.00
2022-09-24T10:09:50.836Z,995.01
2022-09-24T10:10:50.817Z,994.97
2022-09-24T10:11:50.816Z,994.95
2022-09-24T10:12:50.788Z,994.95
2022-09-24T10:13:50.817Z,994.93
2022-09-24T10:14:50.779Z,994.96
2022-09-24T10:15:50.777Z,995.00
2022-09-24T10:16:50.748Z,995.01
2022-09-24T10:17:50.739Z,995.01
2022-09-24T10:18:50.726Z,995.08
2022-09-24T10:19:50.762Z,995.06
2022-09-24T10:20:50.700Z,995.01
2022-09-24T10:21:50.711Z,994.99
2022-09-24T10:22:50.680Z,995.00
2022-09-24T10:23:50.681Z,994.98
2022-09-24T10:24:50.680Z,995.03
2022-09-24T10:25:50.653Z,995.02
2022-09-24T10:26:50.632Z,994.97
2022-09-24T10:27:50.628Z,994.94
2022-09-24T10:28:50.610Z,995.02
2022-09-24T10:29:50.600Z,994.90
2022-09-24T10:30:50.671Z,994.96
2022-09-24T10:31:50.627Z,995.02
2022-09-24T10:32:50.562Z,995.00
2022-09-24T10:33:50.570Z,995.01
2022-09-24T10:34:50.542Z,995.01
2022-09-24T10:35:50.532Z,994.98
2022-09-24T10:36:50.533Z,994.94
2022-09-24T10:37:50.512Z,994.96
2022-09-24T10:38:50.505Z,994.95
2022-09-24T10:39:50.492Z,994.92
2022-09-24T10:40:50.528Z,994.88
2022-09-24T10:41:50.492Z,994.80
2022-09-24T10:42:50.467Z,994.82
2022-09-24T10:43:50.453Z,994.81
2022-09-24T10:44:52.806Z,994.79
2022-09-24T10:45:50.422Z,994.81
2022-09-24T10:46:50.517Z,994.82
2022-09-24T10:47:50.423Z,994.86
2022-09-24T10:48:50.384Z,994.82
2022-09-24T10:49:50.375Z,994.79
2022-09-24T10:50:50.363Z,994.82
2022-09-24T10:51:50.352Z,994.85
2022-09-24T10:52:50.353Z,994.88
2022-09-24T10:53:50.364Z,994.89
2022-09-24T10:54:50.313Z,994.86
2022-09-24T10:55:50.304Z,994.85
2022-09-24T10:56:50.294Z,994.87
2022-09-24T10:57:50.285Z,994.90
2022-09-24T10:58:50.275Z,994.89
2022-09-24T10:59:50.306Z,994.87
2022-09-24T11:00:50.246Z,994.85
2022-09-24T11:01:50.361Z,994.91
2022-09-24T11:02:50.291Z,994.95
2022-09-24T11:03:50.264Z,994.92
2022-09-24T11:04:50.196Z,994.92
2022-09-24T11:05:50.209Z,994.98
2022-09-24T11:06:50.175Z,994.91
2022-09-24T11:07:50.166Z,994.91
2022-09-24T11:08:50.146Z,994.82
2022-09-24T11:09:50.146Z,994.87
2022-09-24T11:10:50.155Z,994.84
2022-09-24T11:11:50.125Z,994.78
2022-09-24T11:12:50.104Z,994.78
2022-09-24T11:13:51.595Z,994.77
2022-09-24T11:14:50.078Z,994.78
2022-09-24T11:15:50.089Z,994.73
2022-09-24T11:16:50.077Z,994.75
2022-09-24T11:17:50.059Z,994.79
2022-09-24T11:18:50.037Z,994.68
2022-09-24T11:19:50.028Z,994.59
2022-09-24T11:20:50.015Z,994.64
2022-09-24T11:21:50.006Z,994.66
2022-09-24T11:22:50.008Z,994.65
2022-09-24T11:23:49.988Z,994.66
2022-09-24T11:24:49.967Z,994.64
2022-09-24T11:25:49.959Z,994.66
2022-09-24T11:26:49.949Z,994.67
2022-09-24T11:27:49.940Z,994.63
2022-09-24T11:28:49.939Z,994.63
2022-09-24T11:29:49.909Z,994.65
2022-09-24T11:30:49.953Z,994.61
2022-09-24T11:31:49.967Z,994.58
2022-09-24T11:32:49.870Z,994.58
2022-09-24T11:33:49.872Z,994.60
2022-09-24T11:34:49.881Z,994.58
2022-09-24T11:35:49.862Z,994.61
2022-09-24T11:36:49.833Z,994.62
2022-09-24T11:37:49.821Z,994.61
2022-09-24T11:38:49.811Z,994.61
2022-09-24T11:39:49.855Z,994.64
2022-09-24T11:40:49.874Z,994.54
2022-09-24T11:41:49.790Z,994.51
2022-09-24T11:42:49.770Z,994.55
2022-09-24T11:43:49.761Z,994.51
2022-09-24T11:44:49.739Z,994.51
2022-09-24T11:45:49.731Z,994.53
2022-09-24T11:46:49.826Z,994.41
2022-09-24T11:47:49.824Z,994.39
2022-09-24T11:48:49.693Z,994.43
2022-09-24T11:49:49.690Z,994.35
2022-09-24T11:50:49.673Z,994.34
2022-09-24T11:51:49.662Z,994.35
2022-09-24T11:52:49.692Z,994.30
2022-09-24T11:53:49.655Z,994.29
2022-09-24T11:54:49.631Z,994.27
2022-09-24T11:55:49.614Z,994.36
2022-09-24T11:56:49.605Z,994.35
2022-09-24T11:57:49.614Z,994.35
2022-09-24T11:58:49.582Z,994.34
2022-09-24T11:59:49.588Z,994.28
2022-09-24T12:00:49.565Z,994.31
2022-09-24T12:01:49.610Z,994.33
2022-09-24T12:02:49.596Z,994.35
2022-09-24T12:03:49.553Z,994.35
2022-09-24T12:04:49.513Z,994.36
2022-09-24T12:05:49.504Z,994.34
2022-09-24T12:06:49.485Z,994.30
2022-09-24T12:07:49.485Z,994.33
2022-09-24T12:08:49.515Z,994.29
2022-09-24T12:09:49.455Z,994.34
2022-09-24T12:10:49.446Z,994.34
2022-09-24T12:11:49.444Z,994.33
2022-09-24T12:12:49.437Z,994.29
2022-09-24T12:13:49.415Z,994.31
2022-09-24T12:14:49.426Z,994.28
2022-09-24T12:15:49.440Z,994.27
2022-09-24T12:16:49.376Z,994.30
2022-09-24T12:17:49.377Z,994.25
2022-09-24T12:18:49.356Z,994.26
2022-09-24T12:19:49.347Z,994.29
2022-09-24T12:20:49.358Z,994.22
2022-09-24T12:21:49.327Z,994.29
2022-09-24T12:22:49.309Z,994.22
2022-09-24T12:23:49.534Z,994.21
2022-09-24T12:24:49.288Z,994.18
2022-09-24T12:25:49.279Z,994.10
2022-09-24T12:26:49.288Z,994.15
2022-09-24T12:27:49.317Z,994.11
2022-09-24T12:28:49.239Z,994.08